Time;durP1;ratioP1;P1;durP2;ratioP2;P2;SDS_P1;SDS_P2;PMS_P1;PMS_P2;Temp;Humidity;BMP_temperature;BMP_pressure;BME280_temperature;BME280_humidity;BME280_pressure;Samples;Min_cycle;Max_cycle;Signal;HPM_P1;HPM_P2
2021/10/09 00:01:15;;;;;;;59.80;24.27;;;;;;;;;;5036028;28;20103;-77
2021/10/09 00:03:40;;;;;;;60.00;25.07;;;;;;;;;;5035309;28;20477;-77
2021/10/09 00:06:06;;;;;;;63.77;25.77;;;;;;;;;;5034478;28;20026;-76
2021/10/09 00:08:32;;;;;;;68.57;25.47;;;;;;;;;;5032598;28;20029;-77
2021/10/09 00:10:59;;;;;;;58.67;23.93;;;;;;;;;;5032481;28;20074;-76
2021/10/09 00:13:24;;;;;;;58.33;25.03;;;;;;;;;;5030505;28;20106;-76
2021/10/09 00:15:50;;;;;;;63.57;24.57;;;;;;;;;;5031667;28;20045;-76
2021/10/09 00:18:15;;;;;;;57.80;23.90;;;;;;;;;;5031711;28;20030;-74
2021/10/09 00:20:41;;;;;;;63.73;25.33;;;;;;;;;;5031886;28;20061;-75
2021/10/09 00:23:07;;;;;;;70.47;24.70;;;;;;;;;;5031615;28;20032;-73
2021/10/09 00:25:32;;;;;;;60.73;21.73;;;;;;;;;;5031259;28;20029;-76
2021/10/09 00:27:58;;;;;;;69.17;23.50;;;;;;;;;;5030682;28;20029;-76
2021/10/09 00:30:23;;;;;;;56.87;23.37;;;;;;;;;;5031730;28;20026;-75
2021/10/09 00:32:49;;;;;;;60.03;24.77;;;;;;;;;;5031496;28;20381;-77
2021/10/09 00:35:14;;;;;;;59.27;24.03;;;;;;;;;;5031522;28;20025;-76
2021/10/09 00:37:40;;;;;;;61.50;24.10;;;;;;;;;;5031388;28;20041;-75
2021/10/09 00:40:07;;;;;;;59.90;24.13;;;;;;;;;;5030240;28;20036;-76
2021/10/09 00:42:32;;;;;;;63.77;24.00;;;;;;;;;;5029989;28;20021;-76
2021/10/09 00:45:00;;;;;;;65.17;24.63;;;;;;;;;;5031514;28;20374;-75
2021/10/09 00:47:25;;;;;;;72.00;24.43;;;;;;;;;;5029135;28;20040;-76
2021/10/09 00:49:51;;;;;;;63.97;22.57;;;;;;;;;;5030143;28;20036;-76
2021/10/09 00:52:18;;;;;;;58.10;23.60;;;;;;;;;;5031668;28;20515;-76
2021/10/09 00:54:45;;;;;;;56.50;22.53;;;;;;;;;;5031774;28;20366;-77
2021/10/09 00:57:16;;;;;;;57.27;22.37;;;;;;;;;;5031166;28;20030;-75
2021/10/09 00:59:43;;;;;;;59.33;22.93;;;;;;;;;;5031210;28;20473;-75
2021/10/09 01:02:09;;;;;;;59.63;21.10;;;;;;;;;;5032293;28;20029;-74
2021/10/09 01:04:35;;;;;;;58.67;21.37;;;;;;;;;;5030738;28;20481;-77
2021/10/09 01:07:05;;;;;;;68.70;22.17;;;;;;;;;;5030786;28;20055;-75
2021/10/09 01:09:31;;;;;;;61.53;23.20;;;;;;;;;;5030662;28;20047;-75
2021/10/09 01:11:57;;;;;;;53.87;23.43;;;;;;;;;;5030949;28;20033;-74
2021/10/09 01:14:23;;;;;;;56.47;23.37;;;;;;;;;;5029405;28;20033;-77
2021/10/09 01:16:48;;;;;;;68.17;23.87;;;;;;;;;;5029571;28;20102;-76
2021/10/09 01:19:14;;;;;;;66.13;23.93;;;;;;;;;;5029967;28;20124;-75
2021/10/09 01:21:42;;;;;;;64.20;23.80;;;;;;;;;;5032500;28;20040;-75
2021/10/09 01:24:08;;;;;;;55.50;22.27;;;;;;;;;;5032357;28;20025;-76
2021/10/09 01:26:34;;;;;;;61.47;24.17;;;;;;;;;;5031237;28;20056;-75
2021/10/09 01:29:00;;;;;;;54.67;23.13;;;;;;;;;;5029392;28;20523;-76
2021/10/09 01:31:26;;;;;;;54.43;20.97;;;;;;;;;;5030470;28;20087;-76
2021/10/09 01:33:51;;;;;;;57.03;22.70;;;;;;;;;;5029177;28;20115;-76
2021/10/09 01:36:17;;;;;;;52.03;21.00;;;;;;;;;;5028750;28;20140;-77
2021/10/09 01:38:49;;;;;;;47.23;21.33;;;;;;;;;;5030220;28;20029;-76
2021/10/09 01:41:14;;;;;;;62.00;23.17;;;;;;;;;;5012229;28;20321;-73
2021/10/09 01:43:40;;;;;;;60.33;23.87;;;;;;;;;;5028808;28;20516;-72
2021/10/09 01:46:05;;;;;;;56.60;22.37;;;;;;;;;;5028839;28;20478;-72
2021/10/09 01:48:33;;;;;;;61.47;23.10;;;;;;;;;;5028609;28;20029;-72
2021/10/09 01:50:59;;;;;;;55.30;22.47;;;;;;;;;;5028886;28;20124;-72
2021/10/09 01:53:25;;;;;;;57.10;21.77;;;;;;;;;;5029893;28;20311;-72
2021/10/09 01:55:50;;;;;;;65.77;22.63;;;;;;;;;;5029844;28;20030;-74
2021/10/09 01:58:16;;;;;;;60.67;22.23;;;;;;;;;;5029320;28;20229;-72
2021/10/09 02:00:41;;;;;;;51.40;21.87;;;;;;;;;;5030027;28;20029;-72
2021/10/09 02:03:08;;;;;;;47.13;19.70;;;;;;;;;;5029815;28;20104;-73
2021/10/09 02:05:35;;;;;;;55.67;20.97;;;;;;;;;;5028278;28;20119;-72
2021/10/09 02:08:03;;;;;;;56.73;22.77;;;;;;;;;;5030164;28;20021;-73
2021/10/09 02:10:30;;;;;;;55.77;21.80;;;;;;;;;;5028535;28;20031;-71
2021/10/09 02:12:58;;;;;;;51.30;20.10;;;;;;;;;;5029947;28;20345;-73
2021/10/09 02:18:26;;;;;;;58.23;22.60;;;;;;;;;;5029880;28;20037;-73
2021/10/09 02:26:19;;;;;;;53.40;20.40;;;;;;;;;;5029511;28;20060;-72
2021/10/09 02:28:45;;;;;;;57.47;21.50;;;;;;;;;;5029591;28;20026;-73
2021/10/09 02:31:10;;;;;;;53.80;21.23;;;;;;;;;;5028608;28;20049;-72
2021/10/09 02:33:36;;;;;;;51.77;22.20;;;;;;;;;;5029456;28;20033;-72
2021/10/09 02:36:02;;;;;;;57.37;22.33;;;;;;;;;;5029296;28;20401;-72
2021/10/09 02:38:27;;;;;;;56.10;20.70;;;;;;;;;;5029624;28;20087;-73
2021/10/09 02:40:53;;;;;;;49.20;21.07;;;;;;;;;;5028534;28;20026;-72
2021/10/09 02:43:18;;;;;;;49.63;21.83;;;;;;;;;;5029156;28;20033;-72
2021/10/09 02:45:44;;;;;;;59.63;20.53;;;;;;;;;;5029253;28;20069;-71
2021/10/09 02:48:10;;;;;;;51.97;21.67;;;;;;;;;;5029856;28;20039;-73
2021/10/09 02:50:36;;;;;;;52.30;21.03;;;;;;;;;;5028767;28;20041;-72
2021/10/09 02:53:02;;;;;;;58.03;20.60;;;;;;;;;;5028115;28;20393;-72
2021/10/09 02:55:27;;;;;;;57.20;20.80;;;;;;;;;;5029166;28;20040;-71
2021/10/09 02:57:53;;;;;;;48.43;19.57;;;;;;;;;;5029326;28;20037;-70
2021/10/09 03:00:21;;;;;;;47.47;19.57;;;;;;;;;;5029191;28;20072;-72
2021/10/09 03:02:47;;;;;;;50.97;19.33;;;;;;;;;;5029440;28;20025;-73
2021/10/09 03:05:13;;;;;;;51.00;20.17;;;;;;;;;;5029448;28;20036;-73
2021/10/09 03:07:39;;;;;;;55.23;20.07;;;;;;;;;;5030033;28;20034;-72
2021/10/09 03:10:06;;;;;;;55.53;20.13;;;;;;;;;;5031672;28;20481;-72
2021/10/09 03:12:32;;;;;;;44.57;18.90;;;;;;;;;;5034779;28;20030;-73
2021/10/09 03:14:57;;;;;;;55.17;20.43;;;;;;;;;;5035100;28;20163;-71
2021/10/09 03:17:23;;;;;;;44.03;18.33;;;;;;;;;;5034746;28;20026;-71
2021/10/09 03:19:49;;;;;;;45.53;21.00;;;;;;;;;;5034574;28;20036;-73
2021/10/09 03:22:14;;;;;;;53.10;19.90;;;;;;;;;;5033321;28;20473;-71
2021/10/09 03:24:40;;;;;;;61.37;21.83;;;;;;;;;;5031522;28;20084;-72
2021/10/09 03:27:06;;;;;;;43.97;20.57;;;;;;;;;;5031351;28;20080;-72
2021/10/09 03:29:32;;;;;;;45.73;20.33;;;;;;;;;;5031439;28;20025;-72
2021/10/09 03:31:57;;;;;;;52.17;20.47;;;;;;;;;;5031285;28;20034;-72
2021/10/09 03:34:23;;;;;;;51.07;20.50;;;;;;;;;;5031064;28;20120;-71
2021/10/09 03:36:48;;;;;;;50.27;21.27;;;;;;;;;;5031185;28;20438;-74
2021/10/09 03:39:18;;;;;;;55.33;21.17;;;;;;;;;;5031324;28;20033;-73
2021/10/09 03:41:48;;;;;;;44.50;20.77;;;;;;;;;;5032696;28;20050;-74
2021/10/09 03:44:14;;;;;;;45.03;20.00;;;;;;;;;;5032874;28;20025;-74
2021/10/09 03:46:44;;;;;;;50.83;21.00;;;;;;;;;;5032190;28;20371;-74
2021/10/09 03:49:24;;;;;;;54.97;21.63;;;;;;;;;;5032627;28;20112;-73
2021/10/09 03:54:33;;;;;;;71.67;26.00;;;;;;;;;;5031931;28;20036;-74
2021/10/09 03:56:58;;;;;;;59.30;22.67;;;;;;;;;;5032368;28;20037;-73
2021/10/09 03:59:24;;;;;;;61.13;22.20;;;;;;;;;;5031974;28;20128;-73
2021/10/09 04:01:49;;;;;;;56.10;24.03;;;;;;;;;;5032255;28;20673;-74
2021/10/09 04:04:15;;;;;;;58.57;22.00;;;;;;;;;;5030879;28;20456;-74
2021/10/09 04:06:40;;;;;;;66.87;24.97;;;;;;;;;;5032253;28;20034;-74
2021/10/09 04:09:06;;;;;;;60.90;23.27;;;;;;;;;;5032035;28;20393;-74
2021/10/09 04:11:31;;;;;;;62.17;24.10;;;;;;;;;;5031708;28;20033;-75
2021/10/09 04:13:57;;;;;;;69.67;23.93;;;;;;;;;;5030669;28;20295;-73
2021/10/09 04:16:22;;;;;;;74.23;25.53;;;;;;;;;;5031629;28;20026;-74
2021/10/09 04:18:48;;;;;;;56.10;23.37;;;;;;;;;;5031807;28;20037;-75
2021/10/09 04:21:13;;;;;;;60.07;23.07;;;;;;;;;;5031501;28;20029;-74
2021/10/09 04:23:39;;;;;;;70.23;25.00;;;;;;;;;;5031726;28;20075;-74
2021/10/09 04:26:05;;;;;;;68.97;23.47;;;;;;;;;;5031781;28;20401;-75
2021/10/09 04:28:31;;;;;;;60.30;23.60;;;;;;;;;;5031591;28;20132;-74
2021/10/09 04:30:56;;;;;;;63.33;24.63;;;;;;;;;;5030555;28;20394;-74
2021/10/09 04:33:21;;;;;;;67.37;26.53;;;;;;;;;;5031384;28;20033;-73
2021/10/09 04:35:48;;;;;;;67.17;28.37;;;;;;;;;;5031411;28;20128;-73
2021/10/09 04:38:13;;;;;;;60.53;25.53;;;;;;;;;;5031351;28;20040;-74
2021/10/09 04:40:39;;;;;;;66.80;25.53;;;;;;;;;;5031217;28;20033;-74
2021/10/09 04:43:05;;;;;;;67.50;24.80;;;;;;;;;;5029920;28;20377;-74
2021/10/09 04:45:31;;;;;;;66.50;25.50;;;;;;;;;;5030975;28;20080;-74
2021/10/09 04:47:57;;;;;;;59.80;25.50;;;;;;;;;;5030211;28;20017;-74
2021/10/09 04:50:23;;;;;;;65.53;25.83;;;;;;;;;;5031028;28;20044;-74
2021/10/09 04:52:48;;;;;;;62.37;24.90;;;;;;;;;;5031145;28;20315;-74
2021/10/09 04:55:14;;;;;;;54.90;23.13;;;;;;;;;;5031469;28;20033;-73
2021/10/09 04:57:39;;;;;;;62.50;24.23;;;;;;;;;;5029437;28;20021;-73
2021/10/09 05:00:06;;;;;;;67.33;26.83;;;;;;;;;;5029689;28;20036;-74
2021/10/09 05:02:31;;;;;;;60.33;23.23;;;;;;;;;;5030759;28;20469;-74
2021/10/09 05:04:57;;;;;;;65.10;25.87;;;;;;;;;;5031083;28;20029;-74
2021/10/09 05:07:22;;;;;;;65.50;25.47;;;;;;;;;;5030916;28;20067;-74
2021/10/09 05:09:50;;;;;;;58.83;23.57;;;;;;;;;;5029607;28;20203;-75
2021/10/09 05:12:16;;;;;;;60.37;25.13;;;;;;;;;;5031013;28;20026;-74
2021/10/09 05:14:42;;;;;;;69.83;27.03;;;;;;;;;;5031524;28;20029;-74
2021/10/09 05:17:08;;;;;;;72.77;26.33;;;;;;;;;;5034072;28;20084;-74
2021/10/09 05:19:34;;;;;;;72.43;26.30;;;;;;;;;;5030353;28;20139;-73
2021/10/09 05:21:59;;;;;;;54.87;24.77;;;;;;;;;;5029669;28;20047;-75
2021/10/09 05:24:24;;;;;;;76.87;26.20;;;;;;;;;;5029091;28;20491;-73
2021/10/09 05:26:51;;;;;;;68.70;25.23;;;;;;;;;;5030785;28;20033;-75
2021/10/09 05:29:18;;;;;;;68.27;25.67;;;;;;;;;;5030717;28;20029;-75
2021/10/09 05:31:47;;;;;;;68.37;26.80;;;;;;;;;;5029860;28;20033;-75
2021/10/09 05:34:12;;;;;;;65.67;24.70;;;;;;;;;;5030107;28;20148;-74
2021/10/09 05:36:38;;;;;;;64.93;27.87;;;;;;;;;;5028597;28;20089;-75
2021/10/09 05:39:04;;;;;;;64.73;26.47;;;;;;;;;;5029271;28;20439;-74
2021/10/09 05:41:29;;;;;;;56.20;23.57;;;;;;;;;;5030019;28;20029;-73
2021/10/09 05:43:55;;;;;;;72.33;26.83;;;;;;;;;;5028846;28;20056;-74
2021/10/09 05:46:22;;;;;;;60.40;26.27;;;;;;;;;;5030147;28;20031;-75
2021/10/09 05:48:48;;;;;;;63.63;27.17;;;;;;;;;;5029959;28;20025;-74
2021/10/09 05:54:05;;;;;;;59.50;25.70;;;;;;;;;;5029923;28;20037;-74
2021/10/09 05:56:44;;;;;;;150.43;30.13;;;;;;;;;;5030034;28;20480;-76
2021/10/09 07:01:36;;;;;;;68.43;26.80;;;;;;;;;;5033519;28;20044;-75
2021/10/09 07:04:01;;;;;;;62.10;26.73;;;;;;;;;;5033209;28;20025;-75
2021/10/09 07:06:27;;;;;;;56.97;24.13;;;;;;;;;;5032956;28;20025;-73
2021/10/09 07:08:52;;;;;;;59.93;24.77;;;;;;;;;;5032898;28;20068;-75
2021/10/09 07:11:18;;;;;;;71.97;26.77;;;;;;;;;;5032088;28;20025;-73
2021/10/09 07:13:43;;;;;;;76.47;26.97;;;;;;;;;;5031946;28;20033;-74
2021/10/09 07:16:09;;;;;;;76.77;27.93;;;;;;;;;;5033158;28;20021;-74
2021/10/09 07:18:34;;;;;;;73.27;25.00;;;;;;;;;;5032951;28;20095;-76
2021/10/09 07:21:00;;;;;;;67.87;24.30;;;;;;;;;;5033088;28;20029;-74
2021/10/09 07:23:25;;;;;;;65.53;23.37;;;;;;;;;;5033026;28;20039;-74
2021/10/09 07:25:51;;;;;;;51.47;20.77;;;;;;;;;;5031206;28;20025;-74
2021/10/09 07:28:16;;;;;;;55.17;18.57;;;;;;;;;;5031393;28;20061;-74
2021/10/09 07:30:42;;;;;;;35.93;15.63;;;;;;;;;;5032646;28;20044;-75
2021/10/09 07:33:10;;;;;;;49.00;17.03;;;;;;;;;;5032557;28;20107;-74
2021/10/09 07:35:36;;;;;;;55.70;18.00;;;;;;;;;;5032143;28;20045;-75
2021/10/09 07:38:01;;;;;;;47.60;14.20;;;;;;;;;;5031294;28;20107;-75
2021/10/09 07:40:27;;;;;;;36.07;13.43;;;;;;;;;;5030392;28;20035;-74
2021/10/09 07:42:52;;;;;;;38.37;14.33;;;;;;;;;;5032267;28;20036;-74
2021/10/09 07:45:18;;;;;;;39.97;14.47;;;;;;;;;;5032428;28;20028;-74
2021/10/09 07:47:43;;;;;;;38.23;14.70;;;;;;;;;;5030888;28;20109;-75
2021/10/09 07:50:10;;;;;;;36.00;12.97;;;;;;;;;;5031016;28;20033;-74
2021/10/09 07:52:36;;;;;;;38.50;14.57;;;;;;;;;;5030955;28;20083;-75
2021/10/09 07:55:04;;;;;;;43.20;14.67;;;;;;;;;;5031800;28;20026;-73
2021/10/09 07:57:29;;;;;;;34.00;11.60;;;;;;;;;;5030811;28;20473;-75
2021/10/09 07:59:55;;;;;;;38.43;12.97;;;;;;;;;;5032355;28;20087;-75
2021/10/09 08:02:20;;;;;;;34.30;13.13;;;;;;;;;;5032332;28;20041;-74
2021/10/09 08:04:46;;;;;;;37.50;13.93;;;;;;;;;;5030760;28;20554;-76
2021/10/09 08:07:11;;;;;;;41.40;13.60;;;;;;;;;;5032881;28;20250;-73
2021/10/09 08:09:37;;;;;;;32.27;13.57;;;;;;;;;;5034448;28;20474;-73
2021/10/09 08:12:03;;;;;;;52.10;15.93;;;;;;;;;;5034548;28;20033;-74
2021/10/09 08:14:30;;;;;;;39.20;13.93;;;;;;;;;;5032095;28;20037;-74
2021/10/09 08:16:55;;;;;;;44.10;15.67;;;;;;;;;;5031957;28;20037;-74
2021/10/09 08:19:21;;;;;;;37.70;14.57;;;;;;;;;;5030836;28;20033;-74
2021/10/09 08:21:47;;;;;;;41.03;14.00;;;;;;;;;;5031928;28;20029;-75
2021/10/09 08:40:30;;;;;;;33.40;11.60;;;;;;;;;;5031940;28;20106;-73
2021/10/09 08:42:55;;;;;;;28.07;11.43;;;;;;;;;;5031485;28;20481;-75
2021/10/09 08:45:21;;;;;;;33.73;12.63;;;;;;;;;;5031129;28;20108;-76
2021/10/09 08:47:48;;;;;;;37.60;12.37;;;;;;;;;;5031060;28;20033;-75
2021/10/09 08:50:15;;;;;;;31.63;12.23;;;;;;;;;;5029757;28;20378;-74
2021/10/09 08:52:57;;;;;;;28.67;13.60;;;;;;;;;;5031558;28;20059;-75
2021/10/09 08:55:24;;;;;;;33.13;12.15;;;;;;;;;;5031270;28;20017;-76
2021/10/09 08:57:50;;;;;;;33.83;12.00;;;;;;;;;;5030737;28;20025;-75
2021/10/09 09:00:21;;;;;;;31.10;13.03;;;;;;;;;;5029670;28;20033;-74
2021/10/09 09:03:08;;;;;;;26.03;12.40;;;;;;;;;;5031293;28;20040;-74
2021/10/09 09:33:20;;;;;;;35.73;12.23;;;;;;;;;;5030231;28;20036;-73
2021/10/09 09:38:54;;;;;;;52.27;16.17;;;;;;;;;;5030483;28;20037;-74
2021/10/09 09:41:19;;;;;;;26.57;11.67;;;;;;;;;;5030243;28;20551;-73
2021/10/09 09:43:45;;;;;;;28.83;11.53;;;;;;;;;;5030514;28;20029;-73
2021/10/09 09:46:18;;;;;;;29.13;12.20;;;;;;;;;;5030463;28;20029;-73
2021/10/09 09:48:45;;;;;;;40.93;15.30;;;;;;;;;;5030568;28;20500;-73
2021/10/09 09:51:14;;;;;;;31.27;11.40;;;;;;;;;;5029349;28;20033;-73
2021/10/09 09:53:41;;;;;;;26.57;10.67;;;;;;;;;;5030419;28;20029;-73
2021/10/09 09:56:08;;;;;;;29.10;10.50;;;;;;;;;;5029328;28;20118;-74
2021/10/09 09:58:41;;;;;;;30.07;11.07;;;;;;;;;;5030774;28;20056;-73
2021/10/09 10:01:12;;;;;;;29.47;10.87;;;;;;;;;;5029031;28;20082;-74
2021/10/09 10:03:46;;;;;;;25.13;9.75;;;;;;;;;;5029086;28;20037;-73
2021/10/09 10:06:12;;;;;;;33.87;11.07;;;;;;;;;;5030425;28;20252;-74
2021/10/09 10:08:41;;;;;;;27.53;9.50;;;;;;;;;;5029097;28;20025;-73
2021/10/09 10:11:08;;;;;;;26.53;9.23;;;;;;;;;;5030069;28;20100;-74
2021/10/09 10:13:35;;;;;;;21.87;9.23;;;;;;;;;;5030995;28;20083;-74
2021/10/09 10:16:07;;;;;;;33.45;11.77;;;;;;;;;;5030082;28;20091;-73
2021/10/09 10:18:59;;;;;;;30.65;11.52;;;;;;;;;;5028390;28;20017;-73
2021/10/09 10:21:31;;;;;;;27.73;10.38;;;;;;;;;;5025134;28;20040;-73
2021/10/09 10:23:56;;;;;;;23.75;10.00;;;;;;;;;;5028571;28;20029;-72
2021/10/09 10:26:31;;;;;;;25.07;9.70;;;;;;;;;;5028728;28;20026;-74
2021/10/09 10:28:56;;;;;;;29.40;9.35;;;;;;;;;;5028737;28;20029;-75
2021/10/09 10:31:24;;;;;;;21.10;9.35;;;;;;;;;;5028508;28;20091;-73
2021/10/09 10:34:00;;;;;;;23.85;9.15;;;;;;;;;;5028335;28;20037;-74
2021/10/09 10:36:44;;;;;;;23.67;9.88;;;;;;;;;;5029831;28;20045;-73
2021/10/09 10:39:12;;;;;;;22.77;8.38;;;;;;;;;;5030251;28;20022;-72
2021/10/09 10:41:51;;;;;;;26.50;10.75;;;;;;;;;;5029936;28;20484;-71
2021/10/09 10:51:08;;;;;;;24.75;8.93;;;;;;;;;;5029697;28;20036;-73
2021/10/09 10:53:59;;;;;;;28.23;9.70;;;;;;;;;;5029127;28;20359;-73
2021/10/09 10:56:25;;;;;;;26.05;10.38;;;;;;;;;;5028283;28;20029;-72
2021/10/09 10:59:26;;;;;;;19.67;9.00;;;;;;;;;;5029135;28;20021;-73
2021/10/09 11:02:07;;;;;;;29.65;10.20;;;;;;;;;;5029418;28;20064;-72
2021/10/09 11:04:54;;;;;;;26.25;8.30;;;;;;;;;;5028468;28;20397;-73
2021/10/09 11:07:24;;;;;;;19.75;8.30;;;;;;;;;;5028450;28;20033;-73
2021/10/09 11:09:51;;;;;;;33.13;9.93;;;;;;;;;;5028338;28;20029;-73
2021/10/09 11:12:28;;;;;;;21.60;8.85;;;;;;;;;;5029553;28;20029;-73
2021/10/09 11:15:04;;;;;;;26.35;9.55;;;;;;;;;;5029679;28;20442;-73
2021/10/09 11:17:49;;;;;;;17.55;8.23;;;;;;;;;;5029410;28;20029;-72
2021/10/09 11:20:29;;;;;;;15.27;7.20;;;;;;;;;;5028202;28;20021;-73
2021/10/09 11:23:00;;;;;;;17.90;8.70;;;;;;;;;;5029483;28;20077;-73
2021/10/09 11:25:31;;;;;;;24.98;7.72;;;;;;;;;;5028298;28;20081;-73
2021/10/09 11:28:00;;;;;;;22.58;7.43;;;;;;;;;;5029584;28;20021;-74
2021/10/09 11:30:26;;;;;;;16.63;6.90;;;;;;;;;;5029233;28;20029;-74
2021/10/09 11:32:54;;;;;;;19.10;8.25;;;;;;;;;;5033205;28;20033;-73
2021/10/09 11:35:30;;;;;;;28.17;11.30;;;;;;;;;;5033520;28;20105;-74
2021/10/09 11:37:56;;;;;;;24.42;9.05;;;;;;;;;;5031728;28;20041;-73
2021/10/09 11:40:52;;;;;;;22.60;8.60;;;;;;;;;;5032722;28;20032;-73
2021/10/09 11:43:28;;;;;;;24.83;8.88;;;;;;;;;;5031367;28;20037;-72
2021/10/09 11:54:28;;;;;;;19.98;8.45;;;;;;;;;;5031398;28;20072;-73
2021/10/09 11:56:54;;;;;;;23.55;9.13;;;;;;;;;;5031149;28;20033;-73
2021/10/09 11:59:39;;;;;;;18.67;7.22;;;;;;;;;;5031299;28;20029;-74
2021/10/09 12:02:06;;;;;;;22.90;8.48;;;;;;;;;;5030873;28;20044;-73
2021/10/09 12:04:32;;;;;;;20.65;7.65;;;;;;;;;;5031358;28;20021;-72
2021/10/09 12:07:08;;;;;;;13.90;5.57;;;;;;;;;;5032610;28;20029;-72
2021/10/09 12:09:39;;;;;;;11.85;5.78;;;;;;;;;;5031822;28;20061;-74
2021/10/09 12:12:17;;;;;;;20.20;7.18;;;;;;;;;;5032731;28;20123;-74
2021/10/09 12:14:43;;;;;;;16.17;7.10;;;;;;;;;;5032517;28;20074;-73
2021/10/09 12:17:09;;;;;;;13.20;6.57;;;;;;;;;;5030856;28;20083;-73
2021/10/09 12:19:35;;;;;;;21.92;7.72;;;;;;;;;;5031148;28;20029;-72
2021/10/09 12:22:03;;;;;;;18.77;7.05;;;;;;;;;;5030829;28;20116;-74
2021/10/09 12:24:30;;;;;;;19.92;6.90;;;;;;;;;;5032376;28;20018;-73
2021/10/09 12:27:15;;;;;;;22.55;8.43;;;;;;;;;;5030476;28;20025;-73
2021/10/09 12:29:57;;;;;;;14.80;6.53;;;;;;;;;;5031142;28;20453;-74
2021/10/09 12:32:23;;;;;;;14.05;5.93;;;;;;;;;;5031964;28;20021;-72
2021/10/09 12:35:24;;;;;;;12.38;5.85;;;;;;;;;;5031840;28;20078;-74
2021/10/09 12:37:55;;;;;;;13.13;5.80;;;;;;;;;;5031781;28;20068;-73
2021/10/09 12:40:22;;;;;;;11.57;5.65;;;;;;;;;;5032010;28;20485;-75
2021/10/09 12:42:48;;;;;;;16.45;5.28;;;;;;;;;;5030541;28;20030;-73
2021/10/09 12:45:15;;;;;;;16.15;6.10;;;;;;;;;;5031839;28;20026;-72
2021/10/09 12:47:44;;;;;;;13.60;6.10;;;;;;;;;;5030377;28;20028;-73
2021/10/09 12:50:10;;;;;;;14.45;5.80;;;;;;;;;;5030437;28;20543;-73
2021/10/09 12:52:37;;;;;;;15.88;6.88;;;;;;;;;;5030567;28;20465;-74
2021/10/09 12:55:04;;;;;;;15.63;6.20;;;;;;;;;;5030481;28;20132;-74
2021/10/09 12:57:30;;;;;;;12.10;5.97;;;;;;;;;;5031864;28;20401;-73
2021/10/09 12:59:57;;;;;;;12.85;6.13;;;;;;;;;;5031726;28;20088;-72
2021/10/09 13:02:23;;;;;;;12.05;5.95;;;;;;;;;;5033408;28;20037;-73
2021/10/09 13:04:48;;;;;;;18.17;6.72;;;;;;;;;;5032048;28;20481;-74
2021/10/09 13:07:14;;;;;;;12.13;6.18;;;;;;;;;;5033490;28;20025;-73
2021/10/09 13:09:39;;;;;;;16.83;6.20;;;;;;;;;;5030349;28;20484;-73
2021/10/09 13:12:07;;;;;;;14.60;6.05;;;;;;;;;;5031525;28;20364;-74
2021/10/09 13:14:32;;;;;;;12.82;6.50;;;;;;;;;;5029910;28;20043;-73
2021/10/09 13:17:00;;;;;;;14.00;5.85;;;;;;;;;;5030810;28;20455;-72
2021/10/09 13:19:25;;;;;;;17.35;6.72;;;;;;;;;;5031358;28;20021;-73
2021/10/09 13:21:51;;;;;;;13.85;6.22;;;;;;;;;;5030084;28;20022;-74
2021/10/09 13:24:17;;;;;;;17.08;5.82;;;;;;;;;;5030970;28;20056;-73
2021/10/09 13:26:43;;;;;;;18.00;6.20;;;;;;;;;;5031465;28;20025;-74
2021/10/09 13:29:08;;;;;;;16.63;6.07;;;;;;;;;;5013013;28;20515;-73
2021/10/09 13:31:34;;;;;;;15.90;5.55;;;;;;;;;;5031059;28;20021;-74
2021/10/09 13:34:00;;;;;;;13.95;5.43;;;;;;;;;;5029614;28;20029;-74
2021/10/09 13:36:26;;;;;;;9.98;5.78;;;;;;;;;;5029703;28;20030;-74
2021/10/09 13:38:53;;;;;;;13.98;6.13;;;;;;;;;;5030791;28;20544;-75
2021/10/09 13:41:18;;;;;;;10.30;5.72;;;;;;;;;;5029728;28;20045;-74
2021/10/09 13:43:45;;;;;;;12.25;6.25;;;;;;;;;;5029732;28;20179;-73
2021/10/09 13:46:15;;;;;;;16.33;5.32;;;;;;;;;;5030749;28;20478;-72
2021/10/09 13:48:42;;;;;;;11.57;6.25;;;;;;;;;;5031238;28;20029;-74
2021/10/09 13:51:12;;;;;;;13.30;5.45;;;;;;;;;;5030715;28;20043;-74
2021/10/09 13:53:42;;;;;;;62.08;9.02;;;;;;;;;;5028967;28;20033;-74
2021/10/09 13:56:08;;;;;;;9.10;5.50;;;;;;;;;;5028620;28;20029;-74
2021/10/09 13:58:34;;;;;;;12.15;6.03;;;;;;;;;;5029818;28;20049;-74
2021/10/09 14:01:00;;;;;;;11.93;5.40;;;;;;;;;;5029510;28;20106;-75
2021/10/09 14:03:26;;;;;;;15.88;6.65;;;;;;;;;;5029776;28;20053;-73
2021/10/09 14:05:53;;;;;;;11.82;5.40;;;;;;;;;;5029503;28;20114;-75
2021/10/09 14:08:18;;;;;;;19.70;8.23;;;;;;;;;;5028495;28;20124;-74
2021/10/09 14:10:44;;;;;;;12.35;5.47;;;;;;;;;;5028465;28;20199;-74
2021/10/09 14:13:11;;;;;;;17.00;6.55;;;;;;;;;;5029421;28;20033;-73
2021/10/09 14:15:38;;;;;;;21.27;7.50;;;;;;;;;;5028313;28;20075;-75
2021/10/09 14:18:04;;;;;;;15.27;6.53;;;;;;;;;;5029416;28;20095;-74
2021/10/09 14:20:29;;;;;;;11.55;5.38;;;;;;;;;;5029698;28;20117;-74
2021/10/09 14:22:58;;;;;;;12.02;5.60;;;;;;;;;;5029789;28;20031;-74
2021/10/09 14:25:31;;;;;;;13.98;6.50;;;;;;;;;;5028291;28;20079;-74
2021/10/09 14:27:56;;;;;;;12.43;5.40;;;;;;;;;;5027952;28;20435;-74
2021/10/09 14:30:22;;;;;;;16.08;5.50;;;;;;;;;;5029526;28;20025;-74
2021/10/09 14:32:49;;;;;;;12.48;5.75;;;;;;;;;;5028318;28;20519;-73
2021/10/09 14:35:14;;;;;;;11.10;4.95;;;;;;;;;;5029181;28;20121;-75
2021/10/09 14:37:40;;;;;;;15.75;6.13;;;;;;;;;;5027860;28;20089;-74
2021/10/09 14:40:06;;;;;;;11.40;5.15;;;;;;;;;;5028253;28;20120;-74
2021/10/09 14:42:31;;;;;;;12.25;5.45;;;;;;;;;;5027992;28;20101;-75
2021/10/09 14:44:57;;;;;;;7.43;4.05;;;;;;;;;;5029168;28;20411;-73
2021/10/09 14:49:58;;;;;;;10.82;5.32;;;;;;;;;;5029567;28;20385;-74
2021/10/09 14:55:15;;;;;;;18.23;5.93;;;;;;;;;;5029237;28;20113;-75
2021/10/09 15:19:44;;;;;;;10.48;6.00;;;;;;;;;;5033239;28;20071;-74
2021/10/09 15:22:09;;;;;;;12.38;6.28;;;;;;;;;;5032557;28;20037;-75
2021/10/09 15:24:35;;;;;;;20.48;6.35;;;;;;;;;;5033060;28;20068;-74
2021/10/09 15:27:01;;;;;;;13.32;4.53;;;;;;;;;;5032322;28;20458;-74
2021/10/09 15:29:28;;;;;;;15.20;4.82;;;;;;;;;;5032848;28;20029;-74
2021/10/09 15:31:56;;;;;;;23.30;6.97;;;;;;;;;;5031502;28;20072;-74
2021/10/09 15:34:21;;;;;;;16.90;5.63;;;;;;;;;;5031451;28;20026;-75
2021/10/09 15:36:47;;;;;;;12.73;4.55;;;;;;;;;;5032641;28;20506;-75
2021/10/09 15:39:12;;;;;;;15.88;6.43;;;;;;;;;;5032634;28;20017;-74
2021/10/09 15:41:38;;;;;;;12.35;4.75;;;;;;;;;;5033243;28;20037;-74
2021/10/09 15:44:07;;;;;;;10.77;4.00;;;;;;;;;;5032749;28;20029;-75
2021/10/09 15:46:36;;;;;;;12.05;5.75;;;;;;;;;;5032662;28;20524;-76
2021/10/09 15:49:04;;;;;;;19.80;6.10;;;;;;;;;;5031490;28;20147;-74
2021/10/09 15:51:29;;;;;;;14.50;5.47;;;;;;;;;;5031861;28;20033;-76
2021/10/09 15:53:55;;;;;;;12.50;6.00;;;;;;;;;;5034122;28;20025;-74
2021/10/09 15:56:20;;;;;;;11.30;4.80;;;;;;;;;;5033266;28;20466;-75
2021/10/09 15:58:46;;;;;;;14.82;6.05;;;;;;;;;;5031313;28;20081;-73
2021/10/09 16:01:13;;;;;;;16.27;5.07;;;;;;;;;;5014906;28;20074;-74
2021/10/09 16:03:38;;;;;;;13.73;4.82;;;;;;;;;;5032187;28;20036;-75
2021/10/09 16:06:05;;;;;;;12.55;5.75;;;;;;;;;;5030777;28;20029;-76
2021/10/09 16:08:33;;;;;;;14.88;5.93;;;;;;;;;;5032139;28;20025;-75
2021/10/09 16:11:00;;;;;;;10.60;5.28;;;;;;;;;;5032096;28;20021;-74
2021/10/09 16:13:28;;;;;;;18.98;6.35;;;;;;;;;;5031745;28;20033;-76
2021/10/09 16:15:54;;;;;;;14.80;6.65;;;;;;;;;;5031241;28;20416;-76
2021/10/09 16:18:20;;;;;;;17.70;7.80;;;;;;;;;;5029940;28;20102;-74
2021/10/09 16:20:46;;;;;;;17.38;7.15;;;;;;;;;;5030411;28;20036;-74
2021/10/09 16:23:11;;;;;;;12.63;6.43;;;;;;;;;;5031519;28;20030;-75
2021/10/09 16:25:37;;;;;;;15.20;7.57;;;;;;;;;;5031864;28;20033;-75
2021/10/09 16:28:03;;;;;;;14.18;7.10;;;;;;;;;;5031530;28;20030;-74
2021/10/09 16:30:28;;;;;;;18.10;6.20;;;;;;;;;;5031713;28;20377;-76
2021/10/09 16:32:54;;;;;;;13.98;6.35;;;;;;;;;;5032102;28;20052;-76
2021/10/09 16:35:19;;;;;;;17.75;6.40;;;;;;;;;;5031587;28;20414;-76
2021/10/09 16:37:48;;;;;;;14.45;6.05;;;;;;;;;;5030022;28;20052;-78
2021/10/09 16:40:13;;;;;;;16.35;7.22;;;;;;;;;;5030054;28;20029;-78
2021/10/09 16:42:39;;;;;;;14.00;7.50;;;;;;;;;;5030121;28;20454;-73
2021/10/09 16:45:06;;;;;;;12.83;5.67;;;;;;;;;;5030931;28;20033;-72
2021/10/09 16:47:31;;;;;;;19.65;5.93;;;;;;;;;;5030095;28;20763;-71
2021/10/09 16:49:56;;;;;;;19.33;7.77;;;;;;;;;;5031165;28;20029;-71
2021/10/09 16:52:22;;;;;;;18.80;7.20;;;;;;;;;;5030853;28;20029;-72
2021/10/09 16:54:47;;;;;;;13.77;6.07;;;;;;;;;;5029685;28;20078;-72
2021/10/09 16:57:13;;;;;;;15.47;6.67;;;;;;;;;;5030942;28;20070;-75
2021/10/09 16:59:40;;;;;;;24.60;7.73;;;;;;;;;;5029585;28;20028;-72
2021/10/09 17:02:06;;;;;;;14.70;6.60;;;;;;;;;;5029412;28;20057;-72
2021/10/09 17:04:31;;;;;;;36.03;7.53;;;;;;;;;;5030987;28;20573;-72
2021/10/09 17:06:57;;;;;;;16.20;7.53;;;;;;;;;;5030670;28;20049;-72
2021/10/09 17:09:22;;;;;;;15.43;8.07;;;;;;;;;;5029278;28;20600;-74
2021/10/09 17:11:48;;;;;;;21.03;8.63;;;;;;;;;;5030855;28;20048;-73